青森空港の過去48時間の天気

青森空港 (Aomori)

現在時刻: 10/20 03:37 JST (10/19 18:37 UTC) 以下の時間は現地時間です。

過去48時間のMETAR気象情報
時間 風向 風速(m/s) 視程 気温(℃) 湿度(%) 気圧(hPa) 天気現象
19 21:00 南南西 1 10km以上 6 100 1019
19 20:00 南南西 2 10km以上 8 100 1019
19 19:00 不定 1 10km以上 9 93 1019
19 18:00 不定 1 10km以上 10 87 1018
19 17:00 北北東 2 10km以上 10 87 1018
19 16:00 北東 4 10km以上 13 72 1018
19 15:00 北東 4 10km以上 15 59 1018
19 14:00 北東 3 10km以上 16 55 1018
19 13:00 不定 1 10km以上 16 51 1018
19 12:00 不定 1 10km以上 15 55 1019
19 11:00 不定 2 10km以上 15 55 1020
19 10:00 3 10km以上 14 63 1020
19 09:00 2 10km以上 11 82 1021
19 08:00 不定 1 10km以上 9 87 1021
19 07:00 不定 1 10km以上 4 100 1020
19 06:40 南西 2 10km以上 1 100 1020
18 21:00 南東 2 10km以上 4 100 1020
18 20:00 不定 1 10km以上 4 93 1020
18 19:00 南南東 1 10km以上 6 93 1020
18 18:00 不定 1 10km以上 6 93 1019
18 17:00 西 2 10km以上 8 87 1018
18 16:00 西 4 10km以上 13 62 1018
18 15:00 西 4 10km以上 14 51 1017
18 14:00 西北西 4 10km以上 14 51 1017
18 13:00 西北西 4 10km以上 14 47 1017
18 12:00 西北西 5 10km以上 13 47 1017
18 11:00 西 3 10km以上 14 51 1018
18 10:00 西南西 5 10km以上 14 59 1017
18 09:00 南西 4 10km以上 12 58 1017
18 08:00 南南西 4 10km以上 11 62 1017
18 07:00 4 10km以上 9 71 1017
18 06:40 南南西 3 10km以上 9 71 1017
RJSA 191200Z 21002KT 9999 FEW030 SCT050 BKN/// 06/06 Q1019
RJSA 191100Z 21003KT 9999 FEW030 SCT050 BKN/// 08/08 Q1019
RJSA 191000Z VRB01KT 9999 FEW030 SCT040 BKN050 09/08 Q1019
RJSA 190900Z VRB02KT 9999 FEW030 BKN040 10/08 Q1018
RJSA 190800Z 03004KT 9999 FEW030 BKN/// 10/08 Q1018
RJSA 190700Z 05008KT 9999 FEW030 BKN/// 13/08 Q1018
RJSA 190600Z 05008KT 9999 FEW030 SCT040 BKN/// 15/07 Q1018
RJSA 190500Z 04005KT 330V090 9999 FEW030 SCT040 BKN/// 16/07 Q1018
RJSA 190400Z VRB02KT 9999 FEW030 BKN040 BKN/// 16/06 Q1018
RJSA 190300Z VRB02KT 9999 FEW030 SCT040 BKN/// 15/06 Q1019
RJSA 190200Z VRB03KT 9999 FEW030 SCT040 BKN/// 15/06 Q1020
RJSA 190100Z 36006KT 330V040 9999 FEW020 BKN/// 14/07 Q1020
RJSA 190000Z 35003KT 310V040 9999 FEW020 BKN/// 11/08 Q1021
RJSA 182300Z VRB02KT 9999 FEW020 BKN/// 09/07 Q1021
RJSA 182200Z VRB02KT 9999 FEW020 BKN/// 04/04 Q1020
RJSA 182140Z 22004KT 9999 FEW020 SCT/// 01/01 Q1020 RMK 1CU020 A3014
RJSA 181200Z 14003KT 9999 FEW030 04/04 Q1020
RJSA 181100Z VRB01KT 9999 FEW030 04/03 Q1020
RJSA 181000Z 16002KT 9999 FEW030 06/05 Q1020
RJSA 180900Z VRB01KT 9999 FEW030 06/05 Q1019
RJSA 180800Z 28003KT 9999 FEW030 08/06 Q1018
RJSA 180700Z 27007KT 9999 FEW040 13/06 Q1018
RJSA 180600Z 27008KT 9999 FEW050 14/04 Q1017
RJSA 180500Z 29008KT 250V310 9999 FEW030 SCT050 14/04 Q1017
RJSA 180400Z 29007KT 230V330 9999 FEW030 BKN050 14/03 Q1017
RJSA 180300Z 29009KT 9999 FEW030 BKN050 13/02 Q1017
RJSA 180200Z 28005KT 190V320 9999 FEW030 BKN050 14/04 Q1018
RJSA 180100Z 24010KT 210V270 9999 FEW030 SCT040 14/06 Q1017
RJSA 180000Z 23008KT 9999 FEW030 SCT040 12/04 Q1017
RJSA 172300Z 20007KT 9999 FEW030 SCT040 BKN050 11/04 Q1017
RJSA 172200Z 19007KT 9999 FEW030 SCT040 BKN050 09/04 Q1017
RJSA 172140Z 20006KT 9999 FEW030 SCT040 BKN050 09/04 Q1017 RMK 1CU030 4CU040 7CU050 A3004